Time;durP1;ratioP1;P1;durP2;ratioP2;P2;SDS_P1;SDS_P2;PMS_P1;PMS_P2;Temp;Humidity;BMP_temperature;BMP_pressure;BME280_temperature;BME280_humidity;BME280_pressure;Samples;Min_cycle;Max_cycle;Signal;HPM_P1;HPM_P2
2022/10/04 00:01:05;;;;;;;2.80;2.00;;;;;;;11.51;78.34;98225.44;5033590;28;20547;-61
2022/10/04 00:04:03;;;;;;;4.47;1.83;;;;;;;11.63;78.58;98265.47;5069367;28;20086;-61
2022/10/04 00:06:29;;;;;;;3.22;1.88;;;;;;;11.58;78.36;98263.13;5065381;28;20055;-60
2022/10/04 00:09:02;;;;;;;3.25;1.75;;;;;;;11.61;78.08;98273.38;5068530;28;20139;-61
2022/10/04 00:11:32;;;;;;;4.72;2.10;;;;;;;11.60;77.97;98270.88;5066634;28;20135;-62
2022/10/04 00:14:08;;;;;;;3.50;1.98;;;;;;;11.62;78.00;98256.81;5066035;28;20419;-60
2022/10/04 00:16:37;;;;;;;3.40;2.00;;;;;;;11.62;78.28;98275.03;5068742;28;20040;-61
2022/10/04 00:19:39;;;;;;;3.50;2.00;;;;;;;11.63;77.93;98260.25;5068259;28;20591;-62
2022/10/04 00:22:09;;;;;;;3.78;2.20;;;;;;;11.62;78.32;98264.63;5046041;28;20055;-60
2022/10/04 00:25:07;;;;;;;6.95;2.20;;;;;;;11.32;78.00;98223.09;5046366;28;20044;-60
2022/10/04 00:27:38;;;;;;;3.45;2.03;;;;;;;11.61;78.31;98259.53;5035397;28;20047;-60
2022/10/04 00:30:03;;;;;;;3.17;2.28;;;;;;;11.61;78.34;98270.78;5028514;28;20056;-61
2022/10/04 00:32:38;;;;;;;2.88;2.20;;;;;;;11.62;78.13;98277.63;5027840;28;20517;-61
2022/10/04 00:35:24;;;;;;;3.05;2.00;;;;;;;11.62;78.27;98298.47;5028551;28;20544;-62
2022/10/04 00:38:13;;;;;;;5.20;2.60;;;;;;;11.57;77.55;98295.28;5037872;28;20572;-61
2022/10/04 00:40:49;;;;;;;;;;;;;;;11.57;77.50;98282.28;5012213;28;20052;-60
2022/10/04 00:43:20;;;;;;;4.78;2.40;;;;;;;11.55;77.24;98272.91;5027098;28;20317;-61
2022/10/04 00:45:56;;;;;;;3.65;2.00;;;;;;;11.58;77.60;98272.72;5043635;28;20067;-61
2022/10/04 00:48:54;;;;;;;4.55;2.20;;;;;;;11.59;77.73;98282.19;5030863;28;20045;-60
2022/10/04 00:51:24;;;;;;;2.97;1.92;;;;;;;11.59;77.87;98280.44;5027354;28;20072;-61
2022/10/04 00:54:16;;;;;;;2.47;1.98;;;;;;;11.58;77.86;98301.34;5027285;28;20065;-59
2022/10/04 00:56:51;;;;;;;3.28;2.10;;;;;;;11.56;77.84;98316.22;5017566;28;20140;-60
2022/10/04 00:59:42;;;;;;;6.10;2.50;;;;;;;11.54;78.34;98289.44;5042768;28;20048;-61
2022/10/04 01:02:58;;;;;;;3.15;2.20;;;;;;;11.52;78.47;98293.91;5070423;28;20040;-60
2022/10/04 01:05:37;;;;;;;5.93;2.92;;;;;;;11.48;78.30;98293.25;5068813;28;20044;-60
2022/10/04 01:08:10;;;;;;;5.00;2.63;;;;;;;11.48;78.26;98299.31;5053273;28;20131;-60
2022/10/04 01:10:38;;;;;;;4.18;2.50;;;;;;;11.50;78.27;98290.56;5065820;28;20067;-60
2022/10/04 01:13:11;;;;;;;4.25;2.90;;;;;;;11.48;78.24;98295.84;5050849;28;20093;-60
2022/10/04 01:16:01;;;;;;;2.72;2.53;;;;;;;11.49;78.75;98287.13;5052656;28;20041;-60
2022/10/04 01:18:30;;;;;;;3.70;2.90;;;;;;;11.47;78.38;98304.59;5074178;28;20179;-61
2022/10/04 01:21:04;;;;;;;4.47;2.75;;;;;;;11.24;78.45;98248.75;5053356;28;20338;-60
2022/10/04 01:23:39;;;;;;;6.15;2.88;;;;;;;11.43;78.34;98290.94;5055317;28;20033;-60
2022/10/04 01:26:25;;;;;;;3.88;2.83;;;;;;;11.38;79.05;98290.38;5072486;28;20067;-61
2022/10/04 01:28:52;;;;;;;5.07;2.80;;;;;;;11.31;79.40;98306.44;5054128;28;20127;-61
2022/10/04 01:31:18;;;;;;;5.68;2.85;;;;;;;11.27;79.12;98292.78;5070016;28;20475;-60
2022/10/04 01:33:45;;;;;;;3.22;2.63;;;;;;;11.24;79.21;98287.75;5053550;28;20083;-60
2022/10/04 01:39:07;;;;;;;5.13;2.97;;;;;;;11.09;79.57;98287.84;5071102;28;20037;-60
2022/10/04 01:41:55;;;;;;;4.20;2.97;;;;;;;11.08;79.77;98292.19;5070877;28;20071;-60
2022/10/04 01:44:30;;;;;;;3.50;2.72;;;;;;;11.08;80.16;98304.34;5070469;28;20030;-60
2022/10/04 01:47:00;;;;;;;5.88;3.13;;;;;;;11.06;80.51;98312.25;5069938;28;20415;-62
2022/10/04 01:49:30;;;;;;;5.80;3.42;;;;;;;11.03;80.17;98304.63;5069851;28;20040;-60
2022/10/04 01:52:05;;;;;;;7.80;3.83;;;;;;;11.00;80.23;98300.44;5087051;28;20131;-60
2022/10/04 01:54:42;;;;;;;3.33;2.70;;;;;;;11.00;81.27;98307.38;5068764;28;20044;-60
2022/10/04 01:57:16;;;;;;;5.90;3.05;;;;;;;10.98;80.50;98291.91;5036594;28;20032;-59
2022/10/04 02:00:01;;;;;;;4.65;3.05;;;;;;;11.03;81.00;98315.88;5068719;28;20044;-60
2022/10/04 02:02:37;;;;;;;4.20;3.10;;;;;;;11.06;80.31;98307.03;5069428;28;20041;-59
2022/10/04 02:05:09;;;;;;;6.40;3.10;;;;;;;11.07;80.36;98302.69;5071768;28;20115;-60
2022/10/04 02:07:37;;;;;;;3.95;3.20;;;;;;;11.08;80.66;98305.19;5090576;28;20048;-60
2022/10/04 02:10:11;;;;;;;4.45;3.15;;;;;;;11.11;81.05;98309.38;5071821;28;20143;-61
2022/10/04 02:12:43;;;;;;;5.50;3.30;;;;;;;10.76;80.73;98270.66;5070878;28;20040;-60
2022/10/04 02:18:14;;;;;;;5.95;3.10;;;;;;;11.05;80.03;98323.56;5068435;28;20072;-61
2022/10/04 02:20:41;;;;;;;4.18;2.67;;;;;;;10.96;80.76;98316.31;5052926;28;20048;-61
2022/10/04 02:23:07;;;;;;;5.85;3.30;;;;;;;10.88;81.61;98305.50;5069959;28;20036;-60
2022/10/04 02:25:35;;;;;;;4.55;2.75;;;;;;;10.91;81.95;98300.97;5067470;28;20040;-59
2022/10/04 02:28:01;;;;;;;4.20;2.30;;;;;;;11.00;81.33;98339.44;5069204;28;20036;-60
2022/10/04 02:30:27;;;;;;;4.43;2.60;;;;;;;10.97;81.30;98330.97;5067924;28;20047;-60
2022/10/04 02:32:56;;;;;;;2.83;2.55;;;;;;;10.93;82.11;98361.53;5069744;28;20130;-60
2022/10/04 02:35:34;;;;;;;4.53;3.30;;;;;;;10.97;81.76;98323.19;5069786;28;20086;-61
2022/10/04 02:38:15;;;;;;;2.90;2.60;;;;;;;11.00;82.13;98343.78;5053646;28;20534;-60
2022/10/04 02:41:02;;;;;;;4.68;2.53;;;;;;;10.92;82.31;98327.81;5069621;28;20582;-61
2022/10/04 02:43:48;;;;;;;3.95;2.95;;;;;;;10.86;83.06;98320.34;5069975;28;20040;-60
2022/10/04 02:47:02;;;;;;;4.03;2.80;;;;;;;10.92;83.27;98330.41;5070415;28;20044;-61
2022/10/04 02:49:36;;;;;;;6.18;2.75;;;;;;;10.73;83.40;98312.41;5031802;28;20059;-60
2022/10/04 02:52:15;;;;;;;4.90;2.70;;;;;;;10.89;83.14;98338.38;5031362;28;20546;-61
2022/10/04 02:54:45;;;;;;;4.05;2.63;;;;;;;10.88;83.34;98344.50;5015472;28;20508;-60
2022/10/04 02:57:21;;;;;;;4.75;2.65;;;;;;;10.89;83.38;98357.41;5031851;28;20037;-60
2022/10/04 02:59:50;;;;;;;4.88;3.22;;;;;;;10.84;83.79;98337.78;5030486;28;20080;-60
2022/10/04 03:02:28;;;;;;;4.32;2.85;;;;;;;10.84;83.32;98349.03;5048412;28;20524;-60
2022/10/04 03:04:58;;;;;;;4.05;2.92;;;;;;;10.62;83.89;98317.41;5047676;28;20036;-61
2022/10/04 03:07:26;;;;;;;4.32;2.85;;;;;;;10.75;84.34;98344.34;5025121;28;20448;-60
2022/10/04 03:09:52;;;;;;;4.28;3.03;;;;;;;10.74;84.12;98347.03;5045720;28;20603;-60
2022/10/04 03:12:19;;;;;;;6.22;3.35;;;;;;;10.65;84.98;98345.81;5031376;28;20182;-61
2022/10/04 03:14:45;;;;;;;7.18;2.75;;;;;;;10.60;85.40;98340.88;5046958;28;20534;-60
2022/10/04 03:17:13;;;;;;;5.55;3.15;;;;;;;10.60;85.80;98348.66;5048189;28;20076;-61
2022/10/04 03:19:42;;;;;;;8.68;3.30;;;;;;;10.64;85.44;98349.31;5014925;28;20460;-59
2022/10/04 03:22:10;;;;;;;6.18;3.50;;;;;;;10.59;85.60;98349.56;4993369;28;20136;-61
2022/10/04 03:24:46;;;;;;;8.65;3.72;;;;;;;10.59;85.90;98357.38;5047180;28;20546;-61
2022/10/04 03:27:20;;;;;;;8.35;3.20;;;;;;;10.60;86.00;98353.03;5061449;28;20048;-60
2022/10/04 03:29:49;;;;;;;5.47;3.30;;;;;;;10.64;86.18;98357.13;5066904;28;20139;-60
2022/10/04 03:32:16;;;;;;;7.68;3.00;;;;;;;10.67;86.20;98366.50;5067787;28;20051;-59
2022/10/04 03:34:59;;;;;;;4.75;3.15;;;;;;;10.47;86.17;98339.00;5077730;28;20040;-61
2022/10/04 03:37:27;;;;;;;8.35;3.50;;;;;;;10.35;86.64;98318.94;5068146;28;20151;-60
2022/10/04 03:39:54;;;;;;;6.38;3.60;;;;;;;10.54;86.80;98358.56;5065926;28;20060;-59
2022/10/04 03:42:26;;;;;;;7.47;3.42;;;;;;;10.35;86.80;98340.56;5068709;28;20047;-60
2022/10/04 03:45:06;;;;;;;4.75;3.10;;;;;;;10.50;87.15;98352.69;5050032;28;20036;-61
2022/10/04 03:47:32;;;;;;;;;;;;;;;10.60;86.88;98384.19;5068576;28;20856;-61
2022/10/04 03:50:02;;;;;;;5.60;3.42;;;;;;;10.55;86.64;98363.66;5050643;28;19920;-61
2022/10/04 03:52:33;;;;;;;10.30;3.65;;;;;;;10.55;86.63;98383.63;5068720;28;20044;-60
2022/10/04 03:55:08;;;;;;;6.03;3.30;;;;;;;10.55;86.56;98357.63;5069107;28;20040;-61
2022/10/04 03:57:35;;;;;;;5.47;3.33;;;;;;;10.30;86.95;98331.34;5069811;28;20055;-62
2022/10/04 04:00:05;;;;;;;17.23;3.47;;;;;;;10.47;86.86;98386.63;5066013;28;20037;-61
2022/10/04 04:02:46;;;;;;;7.65;3.22;;;;;;;10.52;87.58;98361.22;5066870;28;20199;-60
2022/10/04 04:05:23;;;;;;;4.95;3.20;;;;;;;10.57;87.17;98367.00;5066017;28;20772;-60
2022/10/04 04:08:07;;;;;;;7.30;3.90;;;;;;;10.66;86.93;98368.28;5034192;28;20102;-60
2022/10/04 04:10:36;;;;;;;4.53;3.45;;;;;;;10.64;87.20;98364.91;5069482;28;20293;-61
2022/10/04 04:13:15;;;;;;;7.20;3.47;;;;;;;10.45;87.01;98344.31;5082274;28;20081;-60
2022/10/04 04:15:44;;;;;;;6.25;3.45;;;;;;;10.55;87.43;98363.66;5069312;28;20310;-61
2022/10/04 04:18:21;;;;;;;7.10;3.80;;;;;;;10.60;87.75;98382.44;5068705;28;20040;-61
2022/10/04 04:20:48;;;;;;;5.70;3.30;;;;;;;10.63;87.03;98386.63;5040187;28;20055;-61
2022/10/04 04:23:15;;;;;;;4.88;3.22;;;;;;;10.69;87.26;98388.88;5048155;28;20033;-61
2022/10/04 04:25:56;;;;;;;6.50;3.20;;;;;;;10.80;87.05;98415.13;5062077;28;20036;-59
2022/10/04 04:28:38;;;;;;;9.30;3.58;;;;;;;10.78;86.36;98390.97;5066988;28;20048;-61
2022/10/04 04:31:12;;;;;;;6.78;3.50;;;;;;;10.81;86.05;98390.81;5066709;28;20569;-62
2022/10/04 04:33:50;;;;;;;5.72;2.70;;;;;;;10.86;86.17;98408.75;5065649;28;20055;-62
2022/10/04 04:36:22;;;;;;;4.35;2.95;;;;;;;10.82;85.79;98381.25;5066355;28;20048;-61
2022/10/04 04:41:36;;;;;;;5.20;2.97;;;;;;;10.85;85.39;98386.28;5068737;28;20143;-60
2022/10/04 04:44:03;;;;;;;5.05;2.60;;;;;;;10.88;85.26;98404.31;5068172;28;20036;-60
2022/10/04 04:46:30;;;;;;;4.60;3.05;;;;;;;10.87;85.47;98394.84;5074610;28;20471;-63
2022/10/04 04:49:02;;;;;;;6.22;3.42;;;;;;;10.95;85.71;98397.81;5068560;28;20131;-59
2022/10/04 04:51:32;;;;;;;5.55;3.40;;;;;;;11.00;84.94;98396.66;5070850;28;20048;-63
2022/10/04 04:54:02;;;;;;;4.32;3.05;;;;;;;10.97;84.57;98380.38;5069168;28;20036;-61
2022/10/04 04:56:29;;;;;;;3.67;2.78;;;;;;;11.15;84.64;98397.53;5069434;28;20079;-60
2022/10/04 04:58:58;;;;;;;6.80;2.88;;;;;;;11.16;83.93;98445.19;5070293;28;20033;-60
2022/10/04 05:01:27;;;;;;;4.97;3.03;;;;;;;11.18;83.64;98418.19;5070430;28;20040;-60
2022/10/04 05:04:20;;;;;;;4.75;3.10;;;;;;;11.27;83.39;98416.81;5072176;28;20043;-60
2022/10/04 05:07:05;;;;;;;6.90;3.22;;;;;;;11.22;83.32;98417.06;5064863;28;20052;-62
2022/10/04 05:09:34;;;;;;;7.18;3.35;;;;;;;11.31;83.48;98413.09;5067212;28;20044;-60
2022/10/04 05:12:08;;;;;;;6.03;2.90;;;;;;;11.35;83.12;98428.47;5070521;28;20037;-61
2022/10/04 05:14:39;;;;;;;7.07;3.42;;;;;;;11.40;82.68;98410.81;5070681;28;20139;-61
2022/10/04 05:17:16;;;;;;;7.13;2.78;;;;;;;11.47;82.27;98429.50;5069723;28;20044;-62
2022/10/04 05:19:45;;;;;;;9.60;3.40;;;;;;;11.42;81.98;98436.75;5070116;28;20048;-61
2022/10/04 05:22:12;;;;;;;6.35;3.88;;;;;;;11.42;82.19;98431.53;5071409;28;20040;-60
2022/10/04 05:24:44;;;;;;;5.72;3.53;;;;;;;11.45;81.73;98426.16;5070443;28;20037;-62
2022/10/04 05:27:35;;;;;;;4.75;3.47;;;;;;;11.64;81.48;98421.56;5070474;28;20420;-60
2022/10/04 05:30:04;;;;;;;10.90;3.45;;;;;;;11.69;80.75;98442.13;5068747;28;20036;-59
2022/10/04 05:33:01;;;;;;;5.30;3.10;;;;;;;11.60;80.57;98432.25;5069653;28;20152;-60
2022/10/04 05:35:32;;;;;;;6.45;3.00;;;;;;;11.79;79.92;98427.66;5097357;28;20068;-59
2022/10/04 05:38:11;;;;;;;6.38;3.30;;;;;;;11.84;79.57;98429.06;5081129;28;20040;-60
2022/10/04 05:41:19;;;;;;;4.25;3.00;;;;;;;11.75;79.00;98441.78;5068150;28;20042;-64
2022/10/04 05:43:49;;;;;;;7.32;3.30;;;;;;;11.77;79.09;98437.34;5074010;28;20048;-55
2022/10/04 05:46:19;;;;;;;5.80;3.45;;;;;;;11.80;79.03;98439.75;5071028;28;20032;-61
2022/10/04 05:48:47;;;;;;;7.27;3.83;;;;;;;11.82;79.02;98436.16;5070915;28;20044;-58
2022/10/04 05:51:22;;;;;;;5.07;3.30;;;;;;;11.95;78.30;98458.84;5053075;28;20079;-57
2022/10/04 05:53:49;;;;;;;4.50;3.00;;;;;;;11.84;78.28;98438.63;5069628;28;20097;-60
2022/10/04 05:56:29;;;;;;;6.88;3.60;;;;;;;11.84;78.24;98442.09;5053750;28;20574;-51
2022/10/04 05:59:25;;;;;;;4.43;3.25;;;;;;;11.69;78.45;98424.72;5069658;28;20048;-55
2022/10/04 06:02:35;;;;;;;5.40;3.50;;;;;;;11.78;77.91;98450.25;5065243;28;20041;-57
2022/10/04 06:05:33;;;;;;;7.10;3.92;;;;;;;11.76;78.15;98446.06;5040817;28;20040;-57
2022/10/04 06:08:57;;;;;;;3.28;2.97;;;;;;;11.71;78.55;98459.34;5081214;28;20048;-55
2022/10/04 06:11:39;;;;;;;7.55;3.50;;;;;;;11.73;78.45;98461.84;5056577;28;20062;-55
2022/10/04 06:14:41;;;;;;;7.60;3.53;;;;;;;11.74;78.26;98469.59;5070167;28;20725;-55
2022/10/04 06:17:19;;;;;;;7.60;3.25;;;;;;;11.74;77.60;98463.53;5053894;28;20095;-55
2022/10/04 06:19:52;;;;;;;6.40;3.45;;;;;;;11.74;77.86;98471.34;5070572;28;20131;-59
2022/10/04 06:22:21;;;;;;;8.65;4.70;;;;;;;11.74;78.28;98464.38;5069976;28;20048;-56
2022/10/04 06:25:22;;;;;;;4.38;3.10;;;;;;;11.43;77.96;98415.84;5060047;28;20102;-49
2022/10/04 06:28:10;;;;;;;8.05;3.42;;;;;;;11.78;78.23;98470.22;5068670;28;20044;-62
2022/10/04 06:31:04;;;;;;;7.38;3.63;;;;;;;11.80;77.77;98471.00;5052043;28;20056;-60
2022/10/04 06:33:46;;;;;;;4.30;2.35;;;;;;;11.86;77.16;98474.09;5069498;28;20049;-61
2022/10/04 06:36:30;;;;;;;5.32;2.78;;;;;;;11.88;77.36;98466.16;5071201;28;20044;-60
2022/10/04 06:39:05;;;;;;;4.57;2.92;;;;;;;11.87;76.94;98477.53;5071093;28;20041;-60
2022/10/04 06:41:55;;;;;;;5.57;2.80;;;;;;;11.88;76.82;98479.19;5071001;28;20036;-62
2022/10/04 06:44:47;;;;;;;5.22;3.10;;;;;;;11.93;76.45;98482.38;5086295;28;20045;-60
2022/10/04 06:47:32;;;;;;;6.38;3.17;;;;;;;11.92;75.91;98480.72;5031371;28;20048;-60
2022/10/04 06:50:13;;;;;;;6.25;2.90;;;;;;;11.99;76.09;98487.22;5048804;28;20482;-60
2022/10/04 06:52:54;;;;;;;4.50;3.05;;;;;;;12.05;75.71;98481.63;5031592;28;20614;-61
2022/10/04 06:55:50;;;;;;;5.68;3.30;;;;;;;12.05;75.63;98480.78;5048658;28;20122;-60
2022/10/04 06:58:47;;;;;;;6.45;2.88;;;;;;;11.89;74.94;98457.44;5046894;28;20052;-60
2022/10/04 07:01:21;;;;;;;6.13;3.22;;;;;;;12.12;74.73;98482.97;5048353;28;20051;-61
2022/10/04 07:04:04;;;;;;;5.30;3.03;;;;;;;12.31;74.54;98487.91;5047724;28;20095;-60
2022/10/04 07:06:40;;;;;;;4.40;3.08;;;;;;;12.14;74.25;98456.81;5047999;28;20041;-60
2022/10/04 07:09:16;;;;;;;4.25;3.15;;;;;;;11.92;73.60;98428.63;5048423;28;20041;-62
2022/10/04 07:11:59;;;;;;;5.65;2.63;;;;;;;12.29;73.70;98495.81;5031544;28;20084;-62
2022/10/04 07:14:42;;;;;;;5.10;3.15;;;;;;;12.22;73.52;98473.66;5047153;28;20531;-60
2022/10/04 07:17:19;;;;;;;3.63;2.97;;;;;;;12.35;73.40;98496.38;5031434;28;20052;-61
2022/10/04 07:19:47;;;;;;;4.93;2.88;;;;;;;12.15;72.53;98448.91;5036217;28;20084;-62
2022/10/04 07:22:28;;;;;;;5.93;3.10;;;;;;;12.49;72.61;98485.94;5013539;28;20045;-61
2022/10/04 07:25:07;;;;;;;7.32;2.53;;;;;;;12.52;72.27;98485.75;5049699;28;20139;-61
2022/10/04 07:31:09;;;;;;;5.20;3.05;;;;;;;12.59;71.08;98480.06;5050270;28;20115;-62
2022/10/04 07:33:49;;;;;;;5.30;3.55;;;;;;;12.74;70.41;98500.00;5056600;28;20155;-62
2022/10/04 07:36:21;;;;;;;4.73;2.70;;;;;;;12.72;69.64;98477.53;5068842;28;20141;-61
2022/10/04 07:38:55;;;;;;;6.00;2.45;;;;;;;12.80;69.08;98492.72;5068435;28;20309;-61
2022/10/04 07:41:57;;;;;;;4.18;2.20;;;;;;;12.74;68.75;98486.94;5070072;28;20032;-60
2022/10/04 07:44:29;;;;;;;4.30;2.85;;;;;;;12.62;68.89;98459.00;5030875;28;20037;-61
2022/10/04 07:47:01;;;;;;;4.90;3.08;;;;;;;12.81;67.81;98478.75;5062291;28;20048;-60
2022/10/04 07:49:39;;;;;;;3.13;2.75;;;;;;;12.80;67.81;98498.78;5069754;28;20089;-61
2022/10/04 07:52:30;;;;;;;5.15;2.85;;;;;;;12.86;67.22;98498.41;5066300;28;20060;-61
2022/10/04 07:55:24;;;;;;;5.85;2.90;;;;;;;12.97;67.11;98490.75;5069719;28;20037;-60
2022/10/04 07:58:07;;;;;;;3.38;2.60;;;;;;;13.24;65.81;98489.94;5069682;28;20044;-61
2022/10/04 08:00:48;;;;;;;3.88;2.47;;;;;;;14.62;63.57;98476.22;5068169;28;20430;-61
2022/10/04 08:03:48;;;;;;;5.35;2.30;;;;;;;16.17;59.27;98471.84;5051690;28;20040;-61
2022/10/04 08:06:38;;;;;;;5.25;2.38;;;;;;;16.49;56.33;98443.94;5068531;28;20131;-61
2022/10/04 08:09:44;;;;;;;3.50;2.15;;;;;;;16.69;55.65;98472.16;5051956;28;20126;-60
2022/10/04 08:12:47;;;;;;;3.05;2.50;;;;;;;16.27;56.09;98493.81;5047018;28;20037;-60
2022/10/04 08:15:13;;;;;;;6.25;2.30;;;;;;;15.55;56.82;98470.38;5007208;28;20049;-61
2022/10/04 08:18:16;;;;;;;3.35;2.30;;;;;;;15.13;57.95;98482.16;5047293;28;20037;-61
2022/10/04 08:21:01;;;;;;;4.32;2.38;;;;;;;15.05;58.53;98479.25;5046682;28;20037;-62
2022/10/04 08:24:15;;;;;;;5.15;2.15;;;;;;;15.43;57.58;98462.56;5013549;28;20048;-60
2022/10/04 08:27:27;;;;;;;3.55;2.30;;;;;;;15.84;56.20;98454.28;4971226;28;20046;-61
2022/10/04 08:30:11;;;;;;;4.20;2.55;;;;;;;15.70;56.21;98465.78;5028030;28;20056;-60
2022/10/04 08:33:00;;;;;;;5.88;2.28;;;;;;;15.57;56.58;98472.88;5046275;28;20052;-60
2022/10/04 08:35:28;;;;;;;3.53;2.38;;;;;;;15.27;56.84;98471.53;5030346;28;20067;-61
2022/10/04 08:38:33;;;;;;;3.08;2.03;;;;;;;14.72;57.27;98463.34;5030078;28;20048;-60
2022/10/04 08:41:23;;;;;;;4.00;2.50;;;;;;;14.67;58.04;98475.91;5030026;28;20147;-62
2022/10/04 08:44:52;;;;;;;3.58;1.83;;;;;;;14.47;58.61;98473.84;5046103;28;20124;-61
2022/10/04 08:48:23;;;;;;;2.42;1.92;;;;;;;14.41;58.92;98501.25;4974451;28;20112;-61
2022/10/04 08:51:01;;;;;;;2.70;1.90;;;;;;;14.35;58.68;98493.78;4954238;28;20045;-61
2022/10/04 08:53:44;;;;;;;3.55;1.88;;;;;;;14.36;58.92;98470.19;5064432;28;20075;-63
2022/10/04 08:56:28;;;;;;;2.95;1.90;;;;;;;14.70;58.21;98468.69;5067580;28;20587;-61
2022/10/04 08:59:18;;;;;;;3.63;2.00;;;;;;;14.99;57.73;98479.69;5081654;28;20044;-62
2022/10/04 09:01:45;;;;;;;3.22;1.83;;;;;;;15.01;57.78;98471.75;5062730;28;20069;-60
2022/10/04 09:04:31;;;;;;;2.35;1.80;;;;;;;14.90;57.17;98509.16;5067067;28;20392;-60
2022/10/04 09:07:23;;;;;;;3.90;2.00;;;;;;;14.65;57.58;98475.19;5062525;28;20032;-61
2022/10/04 09:10:05;;;;;;;2.78;2.00;;;;;;;14.54;57.74;98468.09;5069287;28;20044;-61
2022/10/04 09:12:49;;;;;;;4.90;1.90;;;;;;;14.63;58.06;98480.53;5064516;28;20123;-61
2022/10/04 09:15:29;;;;;;;3.13;1.98;;;;;;;14.69;57.10;98487.09;5050224;28;20076;-59
2022/10/04 09:18:14;;;;;;;4.50;2.83;;;;;;;15.66;55.54;98467.78;5050670;28;20036;-62
2022/10/04 09:20:59;;;;;;;4.97;2.00;;;;;;;16.01;54.68;98472.19;5067182;28;20079;-60
2022/10/04 09:23:39;;;;;;;5.75;2.70;;;;;;;15.77;54.83;98456.50;5066489;28;20051;-61
2022/10/04 09:26:22;;;;;;;5.55;2.40;;;;;;;15.76;54.96;98469.72;5066845;28;20807;-61
2022/10/04 09:29:42;;;;;;;3.45;2.05;;;;;;;15.76;54.72;98448.75;5067697;28;20046;-63
2022/10/04 09:32:17;;;;;;;2.47;1.95;;;;;;;16.65;53.50;98468.06;5074191;28;20040;-61
2022/10/04 09:34:51;;;;;;;3.83;2.08;;;;;;;16.60;52.27;98448.41;5067829;28;20047;-59
2022/10/04 09:38:09;;;;;;;3.50;2.42;;;;;;;16.28;52.58;98453.47;5069369;28;20040;-61
2022/10/04 09:43:59;;;;;;;4.82;1.75;;;;;;;16.08;53.46;98447.16;5039587;28;20143;-60
2022/10/04 09:46:50;;;;;;;2.70;2.20;;;;;;;15.88;53.53;98445.22;5032868;28;20689;-61
2022/10/04 09:50:01;;;;;;;3.05;1.80;;;;;;;15.78;54.00;98462.59;5023161;28;20049;-57
2022/10/04 09:52:52;;;;;;;3.30;1.90;;;;;;;15.84;53.52;98460.34;5032684;28;20127;-57
2022/10/04 09:55:33;;;;;;;5.78;1.95;;;;;;;15.61;53.63;98446.34;5049565;28;20037;-60
2022/10/04 09:58:15;;;;;;;4.35;2.00;;;;;;;15.52;54.50;98447.03;5032284;28;20508;-60
2022/10/04 10:00:45;;;;;;;2.50;1.75;;;;;;;15.41;54.12;98446.13;5049067;28;20068;-61
2022/10/04 10:03:17;;;;;;;3.85;1.67;;;;;;;15.25;54.20;98457.72;5048717;28;20080;-61
2022/10/04 10:06:10;;;;;;;3.72;1.40;;;;;;;15.18;53.56;98443.38;5049393;28;20119;-61
2022/10/04 10:08:48;;;;;;;4.55;1.80;;;;;;;15.05;54.53;98442.63;5047721;28;20037;-60
2022/10/04 10:14:48;;;;;;;5.72;1.88;;;;;;;14.85;54.67;98443.22;5068556;28;20098;-62
2022/10/04 10:17:21;;;;;;;3.60;1.65;;;;;;;14.81;54.68;98450.44;5070853;28;20128;-61
2022/10/04 10:19:53;;;;;;;2.17;1.67;;;;;;;14.81;55.17;98470.56;5071703;28;20051;-61
2022/10/04 10:22:34;;;;;;;3.25;1.50;;;;;;;14.79;55.12;98473.28;5069733;28;20131;-61
2022/10/04 10:25:08;;;;;;;4.63;1.90;;;;;;;14.75;55.29;98471.81;5071290;28;20044;-60
2022/10/04 10:27:43;;;;;;;3.20;1.70;;;;;;;14.69;55.80;98484.50;5070516;28;20423;-61
2022/10/04 10:30:38;;;;;;;2.88;1.67;;;;;;;14.68;56.04;98488.03;5071347;28;20483;-60
2022/10/04 10:33:19;;;;;;;3.58;1.80;;;;;;;14.64;56.25;98466.50;5053140;28;20076;-63
2022/10/04 10:36:16;;;;;;;3.75;1.65;;;;;;;14.55;56.65;98450.63;5069715;28;20572;-60
2022/10/04 10:39:19;;;;;;;3.13;1.77;;;;;;;14.47;57.63;98464.22;5069446;28;20044;-61
2022/10/04 10:42:06;;;;;;;4.75;1.85;;;;;;;14.35;59.21;98485.94;5053022;28;20033;-62
2022/10/04 10:45:00;;;;;;;8.30;2.50;;;;;;;13.39;64.86;98525.50;5017988;28;20037;-60
2022/10/04 10:47:55;;;;;;;4.00;2.63;;;;;;;12.10;76.10;98581.19;5069126;28;20040;-64
2022/10/04 10:50:26;;;;;;;2.10;1.58;;;;;;;10.95;86.29;98588.50;5069315;28;20036;-61
2022/10/04 10:53:13;;;;;;;1.58;0.95;;;;;;;10.47;92.89;98622.22;5082970;28;20105;-63
2022/10/04 10:56:07;;;;;;;7.50;1.90;;;;;;;10.01;97.37;98608.06;5069718;28;20068;-60
2022/10/04 10:58:43;;;;;;;2.83;1.10;;;;;;;9.69;99.18;98615.66;5069141;28;20123;-62
2022/10/04 11:01:38;;;;;;;2.30;0.90;;;;;;;9.50;100.00;98621.81;5067790;28;20040;-63
2022/10/04 11:04:16;;;;;;;0.80;0.60;;;;;;;9.32;100.00;98618.31;5102553;28;20467;-63
2022/10/04 11:07:12;;;;;;;0.55;0.45;;;;;;;9.22;100.00;98630.00;5068547;28;20044;-62
2022/10/04 11:09:46;;;;;;;4.95;0.75;;;;;;;9.11;100.00;98637.44;5070890;28;20040;-61
2022/10/04 11:12:43;;;;;;;8.40;1.50;;;;;;;9.03;100.00;98634.38;5069904;28;20044;-63
2022/10/04 11:15:46;;;;;;;2.90;0.93;;;;;;;8.95;100.00;98639.06;5067577;28;20037;-61
2022/10/04 11:18:15;;;;;;;5.57;0.50;;;;;;;8.96;100.00;98680.44;5069819;28;20401;-60
2022/10/04 11:21:20;;;;;;;2.22;0.93;;;;;;;8.78;100.00;98604.38;5069058;28;20418;-61
2022/10/04 11:24:24;;;;;;;2.30;1.00;;;;;;;8.99;100.00;98645.78;5069406;28;20460;-60
2022/10/04 11:27:00;;;;;;;1.58;0.52;;;;;;;9.03;100.00;98642.13;5070511;28;20067;-60
2022/10/04 11:30:07;;;;;;;3.38;1.10;;;;;;;9.04;100.00;98641.25;5068847;28;20040;-59
2022/10/04 11:33:11;;;;;;;8.85;1.35;;;;;;;9.16;100.00;98643.28;5018481;28;20079;-60
2022/10/04 11:38:51;;;;;;;11.52;1.48;;;;;;;8.97;100.00;98651.03;5068198;28;20032;-57
2022/10/04 11:41:43;;;;;;;6.90;1.02;;;;;;;8.99;100.00;98669.97;5067939;28;20040;-63
2022/10/04 11:44:42;;;;;;;5.43;1.15;;;;;;;8.76;100.00;98620.88;5051459;28;20052;-61
2022/10/04 11:47:49;;;;;;;2.38;0.80;;;;;;;8.94;100.00;98664.13;5011225;28;20156;-58
2022/10/04 11:50:48;;;;;;;1.10;0.75;;;;;;;8.90;100.00;98678.97;5029892;28;20547;-60
2022/10/04 11:53:20;;;;;;;1.17;0.60;;;;;;;8.81;100.00;98678.53;5062619;28;20052;-62
2022/10/04 11:56:07;;;;;;;5.38;0.90;;;;;;;8.78;100.00;98678.66;5046264;28;20514;-60
2022/10/04 11:58:42;;;;;;;1.58;0.73;;;;;;;8.77;100.00;98685.59;5044174;28;20455;-60
2022/10/04 12:01:30;;;;;;;2.90;1.00;;;;;;;8.78;100.00;98674.34;5029583;28;20056;-60
2022/10/04 12:04:16;;;;;;;5.28;0.80;;;;;;;8.80;100.00;98697.56;5044292;28;20063;-60
2022/10/04 12:06:57;;;;;;;3.42;1.35;;;;;;;8.83;100.00;98694.84;5045726;28;20047;-60
2022/10/04 12:09:41;;;;;;;1.35;0.80;;;;;;;8.84;100.00;98675.81;5029633;28;20063;-62
2022/10/04 12:12:46;;;;;;;3.33;0.98;;;;;;;8.97;100.00;98681.28;5029407;28;20040;-58
2022/10/04 12:15:31;;;;;;;3.65;1.20;;;;;;;9.02;100.00;98689.69;5024686;28;20594;-62
2022/10/04 12:18:10;;;;;;;2.58;1.30;;;;;;;9.17;100.00;98679.50;5047695;28;20093;-60
2022/10/04 12:20:55;;;;;;;1.40;1.07;;;;;;;9.22;100.00;98681.88;5030594;28;20064;-62
2022/10/04 12:23:58;;;;;;;4.40;1.50;;;;;;;9.25;100.00;98690.38;5056763;28;20058;-62
2022/10/04 12:26:39;;;;;;;6.47;1.30;;;;;;;9.31;100.00;98694.47;5067848;28;20044;-61
2022/10/04 12:29:26;;;;;;;2.03;1.20;;;;;;;9.38;100.00;98687.22;5069235;28;20541;-62
2022/10/04 12:32:09;;;;;;;8.23;1.67;;;;;;;9.35;100.00;98704.63;5084430;28;20047;-61
2022/10/04 12:34:47;;;;;;;4.82;2.17;;;;;;;9.37;99.93;98714.09;5050778;28;20052;-61
2022/10/04 12:37:16;;;;;;;3.65;1.27;;;;;;;9.43;97.96;98693.03;5067576;28;20048;-66
2022/10/04 12:39:55;;;;;;;2.28;0.77;;;;;;;9.65;96.45;98694.59;5068440;28;20098;-63
2022/10/04 12:42:28;;;;;;;0.85;0.60;;;;;;;9.80;93.78;98695.63;5069473;28;20044;-66
2022/10/04 12:45:31;;;;;;;1.65;0.85;;;;;;;9.97;91.77;98692.22;5068698;28;20036;-64
2022/10/04 12:48:19;;;;;;;1.63;0.95;;;;;;;10.13;90.60;98704.41;5072202;28;20697;-60
2022/10/04 12:50:58;;;;;;;5.10;1.55;;;;;;;10.28;89.31;98712.41;5057656;28;20569;-60
2022/10/04 12:53:47;;;;;;;7.47;1.30;;;;;;;10.45;88.40;98704.63;5067648;28;20045;-63
2022/10/04 12:56:34;;;;;;;6.22;1.33;;;;;;;10.44;86.31;98710.75;5067366;28;20036;-62
2022/10/04 12:59:04;;;;;;;4.05;1.13;;;;;;;10.55;86.04;98719.69;5067477;28;20507;-61
2022/10/04 13:01:52;;;;;;;3.42;0.85;;;;;;;10.62;85.32;98718.44;5050853;28;20048;-61